createdAt,value
2022-08-07T00:01:12.471Z,15.94
2022-08-07T00:03:51.638Z,15.91
2022-08-07T00:06:18.431Z,15.86
2022-08-07T00:08:55.937Z,15.84
2022-08-07T00:11:33.036Z,15.79
2022-08-07T00:13:59.890Z,15.72
2022-08-07T00:16:27.905Z,15.70
2022-08-07T00:18:55.064Z,15.68
2022-08-07T00:21:57.307Z,15.65
2022-08-07T00:24:09.253Z,15.58
2022-08-07T00:26:49.536Z,15.53
2022-08-07T00:29:26.042Z,15.52
2022-08-07T00:31:59.719Z,15.51
2022-08-07T00:34:27.425Z,15.49
2022-08-07T00:36:56.450Z,15.45
2022-08-07T00:39:23.035Z,15.41
2022-08-07T00:42:02.547Z,15.37
2022-08-07T00:44:33.158Z,15.35
2022-08-07T00:47:01.102Z,15.31
2022-08-07T00:50:19.951Z,15.26
2022-08-07T00:52:17.601Z,15.22
2022-08-07T00:54:47.115Z,15.22
2022-08-07T00:57:23.059Z,15.18
2022-08-07T00:59:52.845Z,15.16
2022-08-07T01:02:28.386Z,15.12
2022-08-07T01:04:58.234Z,15.09
2022-08-07T01:07:27.593Z,15.03
2022-08-07T01:10:06.782Z,15.02
2022-08-07T01:12:38.692Z,14.97
2022-08-07T01:15:06.665Z,14.95
2022-08-07T01:17:40.033Z,14.91
2022-08-07T01:20:17.189Z,14.93
2022-08-07T01:22:54.104Z,14.91
2022-08-07T01:25:53.722Z,14.87
2022-08-07T01:28:15.328Z,14.85
2022-08-07T01:30:42.475Z,14.82
2022-08-07T01:33:09.113Z,14.81
2022-08-07T01:35:53.115Z,14.78
2022-08-07T01:38:24.802Z,14.73
2022-08-07T01:40:58.747Z,14.72
2022-08-07T01:43:38.315Z,14.73
2022-08-07T01:46:05.799Z,14.71
2022-08-07T01:48:35.769Z,14.67
2022-08-07T01:52:02.399Z,14.64
2022-08-07T01:54:09.114Z,14.60
2022-08-07T01:56:50.239Z,14.54
2022-08-07T01:59:31.046Z,14.56
2022-08-07T02:02:07.285Z,14.54
2022-08-07T02:04:52.507Z,14.51
2022-08-07T02:07:36.176Z,14.52
2022-08-07T02:10:19.035Z,14.52
2022-08-07T02:12:50.087Z,14.54
2022-08-07T02:15:22.579Z,14.55
2022-08-07T02:17:51.672Z,14.53
2022-08-07T02:20:23.387Z,14.52
2022-08-07T02:22:57.589Z,14.50
2022-08-07T02:26:10.921Z,14.47
2022-08-07T02:28:24.453Z,14.47
2022-08-07T02:30:53.070Z,14.45
2022-08-07T02:33:20.241Z,14.45
2022-08-07T02:36:29.206Z,14.42
2022-08-07T02:38:39.169Z,14.37
2022-08-07T02:41:21.787Z,14.35
2022-08-07T02:43:49.827Z,14.31
2022-08-07T02:46:19.611Z,14.29
2022-08-07T02:48:47.109Z,14.27
2022-08-07T02:51:42.748Z,14.27
2022-08-07T02:54:13.173Z,14.26
2022-08-07T02:56:42.319Z,14.25
2022-08-07T02:59:11.751Z,14.20
2022-08-07T03:01:39.440Z,14.18
2022-08-07T03:04:12.451Z,14.14
2022-08-07T03:06:44.863Z,14.08
2022-08-07T03:09:13.732Z,14.05
2022-08-07T03:11:51.845Z,14.05
2022-08-07T03:14:24.722Z,14.05
2022-08-07T03:16:52.298Z,14.04
2022-08-07T03:19:19.476Z,14.02
2022-08-07T03:21:50.550Z,14.01
2022-08-07T03:24:25.864Z,14.03
2022-08-07T03:26:58.574Z,14.02
2022-08-07T03:29:30.495Z,13.98
2022-08-07T03:31:58.270Z,13.92
2022-08-07T03:34:27.787Z,13.89
2022-08-07T03:36:57.340Z,13.85
2022-08-07T03:39:59.113Z,13.84
2022-08-07T03:42:14.216Z,13.85
2022-08-07T03:44:41.498Z,13.86
2022-08-07T03:47:13.732Z,13.86
2022-08-07T03:49:47.723Z,13.88
2022-08-07T03:52:26.521Z,13.89
2022-08-07T03:55:06.946Z,13.87
2022-08-07T03:58:34.485Z,13.82
2022-08-07T04:00:30.548Z,13.77
2022-08-07T04:03:03.895Z,13.74
2022-08-07T04:05:40.754Z,13.71
2022-08-07T04:08:18.398Z,13.71
2022-08-07T04:10:54.666Z,13.71
2022-08-07T04:14:10.176Z,13.72
2022-08-07T04:16:30.911Z,13.71
2022-08-07T04:19:01.373Z,13.71
2022-08-07T04:21:31.195Z,13.75
2022-08-07T04:24:07.020Z,13.75
2022-08-07T04:26:34.746Z,13.76
2022-08-07T04:29:03.186Z,13.76
2022-08-07T04:31:38.763Z,13.81
2022-08-07T04:34:27.457Z,13.80
2022-08-07T04:37:01.076Z,13.77
2022-08-07T04:39:35.545Z,13.73
2022-08-07T04:42:03.976Z,13.74
2022-08-07T04:44:30.739Z,13.73
2022-08-07T04:47:09.609Z,13.76
2022-08-07T04:50:04.263Z,13.74
2022-08-07T04:52:46.824Z,13.70
2022-08-07T04:58:15.000Z,13.71
2022-08-07T04:59:09.073Z,13.75
2022-08-07T05:01:39.313Z,13.77
2022-08-07T05:04:17.828Z,13.76
2022-08-07T05:07:19.678Z,13.77
2022-08-07T05:09:59.440Z,13.81
2022-08-07T05:12:33.384Z,13.88
2022-08-07T05:15:23.138Z,13.97
2022-08-07T05:17:57.115Z,14.08
2022-08-07T05:20:33.803Z,14.18
2022-08-07T05:23:15.807Z,14.28
2022-08-07T05:26:13.890Z,14.38
2022-08-07T05:28:35.094Z,14.50
2022-08-07T05:31:03.795Z,14.62
2022-08-07T05:33:35.311Z,14.73
2022-08-07T05:36:04.607Z,14.85
2022-08-07T05:39:00.729Z,14.99
2022-08-07T05:41:21.708Z,15.18
2022-08-07T05:44:08.710Z,15.36
2022-08-07T05:46:39.064Z,15.63
2022-08-07T05:49:11.799Z,15.85
2022-08-07T05:51:40.057Z,16.04
2022-08-07T05:54:12.002Z,16.26
2022-08-07T05:56:56.727Z,16.49
2022-08-07T05:59:25.291Z,16.71
2022-08-07T06:01:54.680Z,16.94
2022-08-07T06:04:30.325Z,17.15
2022-08-07T06:07:03.915Z,17.37
2022-08-07T06:09:44.955Z,17.59
2022-08-07T06:12:15.388Z,17.75
2022-08-07T06:14:43.161Z,17.88
2022-08-07T06:17:19.319Z,17.97
2022-08-07T06:20:03.437Z,18.08
2022-08-07T06:22:36.905Z,18.22
2022-08-07T06:25:05.956Z,18.34
2022-08-07T06:27:59.784Z,18.43
2022-08-07T06:30:32.048Z,18.55
2022-08-07T06:33:04.031Z,18.69
2022-08-07T06:35:45.679Z,18.77
2022-08-07T06:38:20.413Z,18.88
2022-08-07T06:40:53.265Z,18.97
2022-08-07T06:43:22.666Z,19.07
2022-08-07T06:45:50.705Z,19.15
2022-08-07T06:48:24.987Z,19.21
2022-08-07T06:50:54.372Z,19.29
2022-08-07T06:54:11.824Z,19.31
2022-08-07T06:56:14.737Z,19.28
2022-08-07T07:00:12.928Z,19.31
2022-08-07T07:01:43.873Z,19.29
2022-08-07T07:04:28.637Z,19.34
2022-08-07T07:07:10.309Z,19.28
2022-08-07T07:09:47.516Z,19.26
2022-08-07T07:12:41.727Z,19.29
2022-08-07T07:15:26.370Z,19.35
2022-08-07T07:18:48.000Z,19.42
2022-08-07T07:21:19.734Z,19.42
2022-08-07T07:24:11.033Z,19.35
2022-08-07T07:26:37.944Z,19.25
2022-08-07T07:29:39.626Z,19.23
2022-08-07T07:32:01.584Z,19.18
2022-08-07T07:34:31.910Z,19.03
2022-08-07T07:37:05.387Z,18.98
2022-08-07T07:39:54.944Z,18.83
2022-08-07T07:42:25.754Z,18.84
2022-08-07T07:45:03.408Z,18.90
2022-08-07T07:47:51.664Z,18.95
2022-08-07T07:50:33.756Z,18.92
2022-08-07T07:53:20.378Z,18.90
2022-08-07T07:55:54.922Z,18.93
2022-08-07T07:58:30.130Z,18.99
2022-08-07T08:00:58.649Z,19.04
2022-08-07T08:04:05.994Z,19.09
2022-08-07T08:06:18.024Z,19.15
2022-08-07T08:08:46.101Z,19.11
2022-08-07T08:11:18.181Z,19.13
2022-08-07T08:14:03.051Z,19.19
2022-08-07T08:16:36.921Z,19.26
2022-08-07T08:19:17.976Z,19.23
2022-08-07T08:22:11.613Z,19.27
2022-08-07T08:25:18.885Z,19.31
2022-08-07T08:27:57.223Z,19.37
2022-08-07T08:30:30.119Z,19.45
2022-08-07T08:33:01.859Z,19.50
2022-08-07T08:35:39.628Z,19.55
2022-08-07T08:38:16.890Z,19.58
2022-08-07T08:40:53.625Z,19.60
2022-08-07T08:43:42.482Z,19.56
2022-08-07T08:46:34.380Z,19.63
2022-08-07T08:49:32.753Z,19.68
2022-08-07T08:52:14.420Z,19.73
2022-08-07T08:54:51.763Z,19.81
2022-08-07T08:57:30.301Z,19.93
2022-08-07T09:00:06.891Z,19.91
2022-08-07T09:02:39.297Z,19.95
2022-08-07T09:05:36.931Z,20.00
2022-08-07T09:08:47.064Z,20.07
2022-08-07T09:11:24.177Z,20.13
2022-08-07T09:14:16.604Z,20.20
2022-08-07T09:16:47.622Z,20.24
2022-08-07T09:19:56.033Z,20.32
2022-08-07T09:24:31.603Z,20.37
2022-08-07T09:26:06.634Z,20.44
2022-08-07T09:30:00.815Z,20.50
2022-08-07T09:31:48.554Z,20.59
2022-08-07T09:34:26.213Z,20.71
2022-08-07T09:37:17.297Z,20.77
2022-08-07T09:40:08.908Z,20.87
2022-08-07T09:42:54.337Z,20.92
2022-08-07T09:47:49.986Z,20.95
2022-08-07T09:50:02.859Z,20.97
2022-08-07T09:52:10.378Z,21.03
2022-08-07T09:54:48.736Z,21.09
2022-08-07T09:57:53.191Z,21.18
2022-08-07T10:00:31.844Z,21.27
2022-08-07T10:04:03.634Z,21.34
2022-08-07T10:06:24.610Z,21.34
2022-08-07T10:09:13.256Z,21.35
2022-08-07T10:12:11.758Z,21.46
2022-08-07T10:14:54.958Z,21.47
2022-08-07T10:18:03.230Z,21.53
2022-08-07T10:21:19.614Z,21.55
2022-08-07T10:24:25.481Z,21.66
2022-08-07T10:27:18.678Z,21.63
2022-08-07T10:30:07.359Z,21.66
2022-08-07T10:34:05.115Z,21.72
2022-08-07T10:36:29.329Z,21.75
2022-08-07T10:39:17.680Z,21.77
2022-08-07T10:42:09.359Z,21.78
2022-08-07T10:44:56.591Z,21.85
2022-08-07T10:47:52.783Z,21.95
2022-08-07T10:50:26.001Z,22.09
2022-08-07T10:53:21.541Z,22.18
2022-08-07T10:56:20.787Z,22.18
2022-08-07T10:59:13.577Z,22.25
2022-08-07T11:02:12.310Z,22.20
2022-08-07T11:05:48.841Z,22.24
2022-08-07T11:08:32.417Z,22.31
2022-08-07T11:11:07.697Z,22.34
2022-08-07T11:14:44.578Z,22.38
2022-08-07T11:16:51.346Z,22.44
2022-08-07T11:19:50.220Z,22.59
2022-08-07T11:22:45.793Z,22.70
2022-08-07T11:25:35.933Z,22.76
2022-08-07T11:28:16.606Z,22.75
2022-08-07T11:31:08.775Z,22.78
2022-08-07T11:33:58.428Z,22.86
2022-08-07T11:36:45.267Z,22.88
2022-08-07T11:40:01.630Z,22.90
2022-08-07T11:42:44.933Z,22.90
2022-08-07T11:45:20.507Z,22.93
2022-08-07T11:48:29.904Z,22.90
2022-08-07T11:51:01.634Z,22.94
2022-08-07T11:53:37.870Z,23.07
2022-08-07T11:56:52.238Z,23.10
2022-08-07T12:00:12.466Z,23.13
2022-08-07T12:02:58.709Z,23.15
2022-08-07T12:05:48.959Z,23.16
2022-08-07T12:08:42.641Z,23.25
2022-08-07T12:11:32.591Z,23.25
2022-08-07T12:14:11.091Z,23.27
2022-08-07T12:16:46.248Z,23.36
2022-08-07T12:19:35.683Z,23.41
2022-08-07T12:22:47.218Z,23.53
2022-08-07T12:26:05.749Z,23.47
2022-08-07T12:28:55.782Z,23.50
2022-08-07T12:31:53.067Z,23.58
2022-08-07T12:34:33.954Z,23.78
2022-08-07T12:37:08.125Z,23.74
2022-08-07T12:39:51.361Z,23.76
2022-08-07T12:42:27.824Z,23.77
2022-08-07T12:44:58.170Z,23.76
2022-08-07T12:47:50.212Z,23.82
2022-08-07T12:50:48.921Z,23.81
2022-08-07T12:54:03.188Z,23.84
2022-08-07T12:56:35.908Z,23.94
2022-08-07T12:59:08.324Z,23.90
2022-08-07T13:02:10.157Z,23.98
2022-08-07T13:06:01.919Z,24.00
2022-08-07T13:08:21.490Z,23.98
2022-08-07T13:10:54.601Z,24.02
2022-08-07T13:13:46.996Z,23.91
2022-08-07T13:16:30.017Z,23.97
2022-08-07T13:19:46.066Z,23.98
2022-08-07T13:22:27.670Z,23.96
2022-08-07T13:25:02.376Z,24.00
2022-08-07T13:28:13.808Z,24.03
2022-08-07T13:30:40.145Z,24.08
2022-08-07T13:34:33.577Z,24.09
2022-08-07T13:36:27.235Z,24.08
2022-08-07T13:39:04.925Z,24.12
2022-08-07T13:41:47.249Z,24.16
2022-08-07T13:44:26.067Z,24.21
2022-08-07T13:46:59.484Z,24.28
2022-08-07T13:50:34.310Z,24.29
2022-08-07T13:52:31.640Z,24.24
2022-08-07T13:55:10.958Z,24.26
2022-08-07T13:57:53.538Z,24.33
2022-08-07T14:00:39.481Z,24.38
2022-08-07T14:03:28.896Z,24.38
2022-08-07T14:06:14.005Z,24.32
2022-08-07T14:08:46.028Z,24.34
2022-08-07T14:11:22.922Z,24.40
2022-08-07T14:13:56.146Z,24.36
2022-08-07T14:16:33.503Z,24.38
2022-08-07T14:19:03.142Z,24.42
2022-08-07T14:22:03.389Z,24.46
2022-08-07T14:24:35.436Z,24.47
2022-08-07T14:28:09.275Z,24.48
2022-08-07T14:30:11.106Z,24.43
2022-08-07T14:32:46.096Z,24.38
2022-08-07T14:35:45.626Z,24.41
2022-08-07T14:38:09.207Z,24.41
2022-08-07T14:40:59.148Z,24.41
2022-08-07T14:43:59.028Z,24.47
2022-08-07T14:46:22.653Z,24.38
2022-08-07T14:49:57.551Z,24.34
2022-08-07T14:52:03.779Z,24.31
2022-08-07T14:54:42.008Z,24.26
2022-08-07T14:57:19.277Z,24.25
2022-08-07T15:00:05.439Z,24.21
2022-08-07T15:05:23.543Z,24.29
2022-08-07T15:10:59.023Z,24.24
2022-08-07T15:13:36.886Z,24.32
2022-08-07T15:18:57.206Z,24.40
2022-08-07T15:21:58.474Z,24.31
2022-08-07T15:25:15.573Z,24.35
2022-08-07T15:27:15.398Z,24.38
2022-08-07T15:30:06.690Z,24.41
2022-08-07T15:36:02.494Z,24.33
2022-08-07T15:38:29.798Z,24.35
2022-08-07T15:41:23.970Z,24.36
2022-08-07T15:44:00.273Z,24.36
2022-08-07T15:46:31.804Z,24.31
2022-08-07T15:49:12.868Z,24.16
2022-08-07T15:54:33.958Z,24.18
2022-08-07T15:57:02.860Z,24.20
2022-08-07T15:59:39.314Z,24.15
2022-08-07T16:02:23.526Z,24.14
2022-08-07T16:04:56.361Z,24.19
2022-08-07T16:08:32.551Z,24.08
2022-08-07T16:10:21.816Z,24.02
2022-08-07T16:13:18.102Z,24.08
2022-08-07T16:16:43.153Z,24.08
2022-08-07T16:19:42.283Z,24.03
2022-08-07T16:22:38.678Z,23.87
2022-08-07T16:25:54.597Z,23.86
2022-08-07T16:30:08.412Z,23.74
2022-08-07T16:31:57.926Z,23.69
2022-08-07T16:34:38.666Z,23.69
2022-08-07T16:38:03.393Z,23.62
2022-08-07T16:40:33.412Z,23.64
2022-08-07T16:44:05.658Z,23.63
2022-08-07T16:47:07.592Z,23.57
2022-08-07T16:50:20.232Z,23.61
2022-08-07T16:54:02.532Z,23.57
2022-08-07T16:56:25.692Z,23.46
2022-08-07T16:59:10.621Z,23.43
2022-08-07T17:02:02.943Z,23.23
2022-08-07T17:04:57.482Z,23.16
2022-08-07T17:07:55.969Z,23.09
2022-08-07T17:10:33.084Z,23.07
2022-08-07T17:13:41.532Z,23.15
2022-08-07T17:16:55.873Z,23.18
2022-08-07T17:20:02.852Z,23.06
2022-08-07T17:22:36.303Z,22.89
2022-08-07T17:25:47.618Z,22.76
2022-08-07T17:28:19.843Z,22.68
2022-08-07T17:31:16.541Z,22.65
2022-08-07T17:34:18.187Z,22.59
2022-08-07T17:36:59.866Z,22.53
2022-08-07T17:39:53.059Z,22.51
2022-08-07T17:42:58.554Z,22.43
2022-08-07T17:45:35.258Z,22.43
2022-08-07T17:48:31.013Z,22.44
2022-08-07T17:51:21.343Z,22.35
2022-08-07T17:54:06.546Z,22.24
2022-08-07T17:56:52.582Z,22.22
2022-08-07T17:59:42.148Z,22.16
2022-08-07T18:02:15.448Z,22.04
2022-08-07T18:04:51.531Z,21.97
2022-08-07T18:07:37.435Z,21.97
2022-08-07T18:10:32.459Z,22.00
2022-08-07T18:12:59.776Z,21.98
2022-08-07T18:15:32.561Z,22.02
2022-08-07T18:18:46.421Z,22.00
2022-08-07T18:21:03.666Z,21.87
2022-08-07T18:23:57.313Z,21.79
2022-08-07T18:26:50.253Z,21.76
2022-08-07T18:30:07.510Z,21.77
2022-08-07T18:32:46.120Z,21.74
2022-08-07T18:35:55.623Z,21.70
2022-08-07T18:38:55.184Z,21.62
2022-08-07T18:41:54.861Z,21.63
2022-08-07T18:44:24.060Z,21.61
2022-08-07T18:47:10.927Z,21.53
2022-08-07T18:50:39.314Z,21.47
2022-08-07T18:53:36.502Z,21.39
2022-08-07T18:56:42.134Z,21.35
2022-08-07T19:00:04.440Z,21.29
2022-08-07T19:02:44.107Z,21.17
2022-08-07T19:06:03.426Z,21.14
2022-08-07T19:08:58.890Z,21.11
2022-08-07T19:12:03.919Z,21.08
2022-08-07T19:14:51.247Z,21.02
2022-08-07T19:17:54.517Z,20.97
2022-08-07T19:20:29.294Z,20.94
2022-08-07T19:23:18.924Z,20.91
2022-08-07T19:26:25.215Z,20.88
2022-08-07T19:30:57.473Z,20.81
2022-08-07T19:32:08.212Z,20.78
2022-08-07T19:34:34.221Z,20.73
2022-08-07T19:37:09.957Z,20.69
2022-08-07T19:39:57.895Z,20.63
2022-08-07T19:42:31.004Z,20.60
2022-08-07T19:45:08.477Z,20.59
2022-08-07T19:47:41.999Z,20.57
2022-08-07T19:50:43.876Z,20.51
2022-08-07T19:52:59.066Z,20.48
2022-08-07T19:55:58.083Z,20.52
2022-08-07T19:58:18.524Z,20.52
2022-08-07T20:00:57.795Z,20.50
2022-08-07T20:03:34.661Z,20.50
2022-08-07T20:06:04.621Z,20.52
2022-08-07T20:08:34.588Z,20.53
2022-08-07T20:11:10.184Z,20.53
2022-08-07T20:13:55.457Z,20.52
2022-08-07T20:16:35.384Z,20.51
2022-08-07T20:19:10.194Z,20.48
2022-08-07T20:21:42.119Z,20.39
2022-08-07T20:24:18.106Z,20.28
2022-08-07T20:26:52.087Z,20.19
2022-08-07T20:29:48.704Z,20.14
2022-08-07T20:32:39.918Z,20.14
2022-08-07T20:35:12.768Z,20.10
2022-08-07T20:37:48.538Z,20.01
2022-08-07T20:40:32.077Z,19.95
2022-08-07T20:43:14.836Z,19.89
2022-08-07T20:46:26.873Z,19.80
2022-08-07T20:48:57.997Z,19.76
2022-08-07T20:51:30.084Z,19.69
2022-08-07T20:54:08.696Z,19.64
2022-08-07T20:56:46.154Z,19.59
2022-08-07T21:00:05.439Z,19.55
2022-08-07T21:02:32.919Z,19.50
2022-08-07T21:05:16.675Z,19.44
2022-08-07T21:07:48.791Z,19.44
2022-08-07T21:10:29.676Z,19.39
2022-08-07T21:13:05.843Z,19.34
2022-08-07T21:15:58.063Z,19.31
2022-08-07T21:18:29.623Z,19.27
2022-08-07T21:21:01.760Z,19.21
2022-08-07T21:23:56.323Z,19.20
2022-08-07T21:26:44.079Z,19.16
2022-08-07T21:29:39.328Z,19.11
2022-08-07T21:32:47.733Z,19.10
2022-08-07T21:35:09.296Z,19.04
2022-08-07T21:38:00.156Z,19.00
2022-08-07T21:40:38.827Z,18.98
2022-08-07T21:43:11.112Z,18.98
2022-08-07T21:46:10.901Z,18.97
2022-08-07T21:48:56.533Z,18.96
2022-08-07T21:52:02.405Z,18.93
2022-08-07T21:54:31.837Z,18.90
2022-08-07T21:57:39.676Z,18.87
2022-08-07T22:00:22.925Z,18.83
2022-08-07T22:03:17.383Z,18.74
2022-08-07T22:06:07.832Z,18.71
2022-08-07T22:09:01.721Z,18.67
2022-08-07T22:12:05.685Z,18.63
2022-08-07T22:14:36.077Z,18.59
2022-08-07T22:17:05.923Z,18.56
2022-08-07T22:19:44.613Z,18.55
2022-08-07T22:22:27.864Z,18.56
2022-08-07T22:25:02.890Z,18.55
2022-08-07T22:28:07.449Z,18.50
2022-08-07T22:30:35.349Z,18.48
2022-08-07T22:33:15.153Z,18.47
2022-08-07T22:35:55.109Z,18.47
2022-08-07T22:38:47.836Z,18.49
2022-08-07T22:42:02.546Z,18.46
2022-08-07T22:44:20.086Z,18.47
2022-08-07T22:47:16.761Z,18.46
2022-08-07T22:50:29.017Z,18.48
2022-08-07T22:53:19.047Z,18.46
2022-08-07T22:56:13.223Z,18.40
2022-08-07T22:58:57.989Z,18.39
2022-08-07T23:02:00.472Z,18.37
2022-08-07T23:06:08.600Z,18.37
2022-08-07T23:08:12.164Z,18.30
2022-08-07T23:11:08.587Z,18.25
2022-08-07T23:14:09.061Z,18.16
2022-08-07T23:17:08.646Z,18.15
2022-08-07T23:20:51.696Z,18.13
2022-08-07T23:24:05.484Z,18.07
2022-08-07T23:26:25.149Z,18.03
2022-08-07T23:29:44.036Z,18.01
2022-08-07T23:34:21.804Z,17.98
2022-08-07T23:35:12.291Z,17.92
2022-08-07T23:38:00.555Z,17.88
2022-08-07T23:40:52.909Z,17.85
2022-08-07T23:43:59.291Z,17.82
2022-08-07T23:47:02.813Z,17.82
2022-08-07T23:50:02.853Z,17.83
2022-08-07T23:53:01.036Z,17.79
2022-08-07T23:55:53.449Z,17.74
2022-08-07T23:58:49.903Z,17.69
